Time;durP1;ratioP1;P1;durP2;ratioP2;P2;SDS_P1;SDS_P2;PMS_P1;PMS_P2;Temp;Humidity;BMP_temperature;BMP_pressure;BME280_temperature;BME280_humidity;BME280_pressure;Samples;Min_cycle;Max_cycle;Signal;HPM_P1;HPM_P2
2021/04/13 00:02:56;;;;;;;;;25.50;25.50;;;;;12.77;72.77;101916.91;4979168;28;10838;-75
2021/04/13 00:05:56;;;;;;;;;23.25;21.75;;;;;12.78;72.45;101911.03;4987662;28;10865;-75
2021/04/13 00:09:05;;;;;;;;;22.00;21.00;;;;;12.83;72.37;101921.22;4970225;28;10704;-75
2021/04/13 00:12:13;;;;;;;;;26.25;23.75;;;;;12.77;72.42;101928.84;4987366;28;10895;-75
2021/04/13 00:15:24;;;;;;;;;24.75;24.75;;;;;12.76;72.53;101926.38;4943128;28;10971;-76
2021/04/13 00:18:05;;;;;;;;;26.75;24.50;;;;;12.88;71.97;101937.75;4926525;28;10759;-74
2021/04/13 00:21:26;;;;;;;;;28.25;25.25;;;;;12.87;71.75;101933.31;4951621;28;10928;-75
2021/04/13 00:24:33;;;;;;;;;21.75;21.75;;;;;12.73;72.29;101935.34;4942864;28;10795;-75
2021/04/13 00:27:38;;;;;;;;;23.00;22.25;;;;;12.74;72.27;101935.03;4944706;28;11145;-74
2021/04/13 00:30:56;;;;;;;;;24.25;24.25;;;;;12.66;72.46;101930.25;4958632;28;10816;-76
2021/04/13 00:33:57;;;;;;;;;18.25;18.25;;;;;12.69;72.37;101923.22;4956008;28;10785;-76
2021/04/13 00:37:24;;;;;;;;;26.50;25.75;;;;;12.66;72.21;101923.88;4956857;28;10790;-73
2021/04/13 00:40:30;;;;;;;;;16.25;16.25;;;;;12.76;72.03;101918.06;4956204;28;10873;-75
2021/04/13 00:43:27;;;;;;;;;23.00;21.50;;;;;12.71;72.20;101919.00;4952394;28;10753;-75
2021/04/13 00:45:57;;;;;;;;;21.00;21.00;;;;;12.70;72.26;101924.88;4954335;28;10768;-75
2021/04/13 00:48:55;;;;;;;;;19.00;19.00;;;;;12.66;72.47;101924.69;4956226;28;10828;-75
2021/04/13 00:51:58;;;;;;;;;27.50;27.50;;;;;12.48;73.19;101920.94;4954777;28;10959;-75
2021/04/13 00:54:58;;;;;;;;;19.50;19.50;;;;;12.49;73.15;101918.97;4955758;28;11298;-75
2021/04/13 00:58:17;;;;;;;;;32.75;28.50;;;;;12.44;73.44;101914.38;4957814;28;11016;-75
2021/04/13 01:01:22;;;;;;;;;53.50;44.75;;;;;12.54;73.09;101918.88;4954781;28;11902;-75
2021/04/13 01:04:26;;;;;;;;;25.75;25.75;;;;;12.55;72.82;101908.59;4955189;28;11533;-75
2021/04/13 01:07:36;;;;;;;;;47.00;39.25;;;;;12.53;72.65;101915.28;4951739;28;11557;-75
2021/04/13 01:10:09;;;;;;;;;33.25;33.25;;;;;12.49;72.87;101917.03;4954716;28;11528;-75
2021/04/13 01:13:41;;;;;;;;;25.75;23.00;;;;;12.55;72.82;101912.19;4948963;28;11609;-75
2021/04/13 01:16:42;;;;;;;;;26.25;26.25;;;;;12.56;72.71;101924.91;4965628;28;11122;-75
2021/04/13 01:19:59;;;;;;;;;22.25;22.25;;;;;12.56;72.69;101922.13;4970837;28;11151;-75
2021/04/13 01:23:02;;;;;;;;;21.00;21.00;;;;;12.57;72.74;101911.84;4970990;28;11111;-74
2021/04/13 01:26:05;;;;;;;;;20.25;20.00;;;;;12.48;73.19;101909.84;4977660;28;11078;-75
2021/04/13 01:29:02;;;;;;;;;22.25;22.25;;;;;12.43;73.32;101901.66;4974005;28;11113;-75
2021/04/13 01:31:59;;;;;;;;;20.25;20.25;;;;;12.43;73.32;101907.19;4974182;28;11185;-74
2021/04/13 01:35:05;;;;;;;;;17.00;16.25;;;;;12.56;72.61;101908.25;4976096;28;11116;-74
2021/04/13 01:38:17;;;;;;;;;22.00;22.00;;;;;12.52;72.83;101901.72;4975008;28;10964;-74
2021/04/13 01:43:51;;;;;;;;;21.75;21.75;;;;;12.33;73.50;101888.00;4973324;28;11134;-75
2021/04/13 01:46:20;;;;;;;;;22.50;22.50;;;;;12.34;73.41;101878.53;4966453;28;10960;-74
2021/04/13 01:49:16;;;;;;;;;22.25;22.25;;;;;12.49;73.01;101878.19;4972550;28;11050;-74
2021/04/13 01:52:19;;;;;;;;;28.50;27.75;;;;;12.51;72.84;101870.38;4972129;28;11034;-74
2021/04/13 01:55:25;;;;;;;;;16.25;16.25;;;;;12.49;72.82;101871.81;4975251;28;11057;-75
2021/04/13 01:58:27;;;;;;;;;18.75;17.75;;;;;12.40;72.78;101868.16;4974873;28;10726;-75
2021/04/13 02:01:36;;;;;;;;;27.75;27.25;;;;;12.41;73.02;101859.50;4966030;28;10852;-74
2021/04/13 02:04:45;;;;;;;;;15.50;14.00;;;;;12.47;72.71;101862.97;4968099;28;11028;-75
2021/04/13 02:11:09;;;;;;;;;13.25;13.25;;;;;12.30;73.13;101849.81;4972362;28;11460;-75
2021/04/13 02:14:14;;;;;;;;;16.50;16.50;;;;;12.45;72.58;101845.84;4970038;28;10863;-75
2021/04/13 02:17:23;;;;;;;;;16.75;15.75;;;;;12.33;72.92;101842.81;4966404;28;10748;-75
2021/04/13 02:19:53;;;;;;;;;15.25;15.25;;;;;12.30;72.94;101838.72;4974769;28;10853;-75
2021/04/13 02:22:23;;;;;;;;;12.25;12.25;;;;;12.30;72.92;101837.91;4972216;28;10762;-76
2021/04/13 02:25:28;;;;;;;;;12.75;12.75;;;;;12.35;72.57;101833.06;4973131;28;10785;-75
2021/04/13 02:27:58;;;;;;;;;14.50;14.00;;;;;12.29;72.86;101823.22;4974472;28;10670;-73
2021/04/13 02:30:48;;;;;;;;;16.25;16.25;;;;;12.24;73.58;101826.91;4973613;28;10695;-75
2021/04/13 02:33:45;;;;;;;;;13.75;13.75;;;;;12.30;72.86;101822.06;4970257;28;10782;-75
2021/04/13 02:36:45;;;;;;;;;17.75;17.75;;;;;12.32;72.94;101822.56;4977617;28;10662;-76
2021/04/13 02:39:42;;;;;;;;;14.25;14.25;;;;;12.32;72.95;101822.56;4965474;28;10849;-75
2021/04/13 02:42:52;;;;;;;;;21.25;21.25;;;;;12.35;73.00;101821.94;4973885;28;10952;-75
2021/04/13 02:45:51;;;;;;;;;17.25;17.00;;;;;12.31;72.90;101818.16;4968539;28;10919;-75
2021/04/13 02:49:12;;;;;;;;;14.50;14.50;;;;;12.40;72.49;101823.75;4973918;28;10857;-76
2021/04/13 02:52:17;;;;;;;;;16.50;16.50;;;;;12.23;73.21;101824.47;4975128;28;10923;-76
2021/04/13 02:55:26;;;;;;;;;17.75;17.75;;;;;12.15;73.38;101828.00;4968720;28;11477;-77
2021/04/13 02:58:01;;;;;;;;;18.25;18.25;;;;;12.12;73.81;101836.94;4969868;28;10857;-77
2021/04/13 03:00:48;;;;;;;;;16.00;16.00;;;;;12.11;74.08;101826.97;4975589;28;11009;-77
2021/04/13 03:03:45;;;;;;;;;20.50;19.00;;;;;12.09;74.05;101835.59;4975592;28;11092;-76
2021/04/13 03:06:24;;;;;;;;;19.75;19.75;;;;;12.08;74.00;101822.88;4977945;28;10922;-76
2021/04/13 03:09:25;;;;;;;;;17.00;16.25;;;;;12.04;74.03;101832.97;4975180;28;10904;-76
2021/04/13 03:12:21;;;;;;;;;15.75;15.75;;;;;12.01;73.93;101829.97;4972676;28;11601;-75
2021/04/13 03:15:25;;;;;;;;;16.00;15.75;;;;;11.99;74.11;101829.47;4977730;28;10854;-76
2021/04/13 03:18:26;;;;;;;;;13.75;13.75;;;;;11.93;74.35;101835.13;4975488;28;10913;-76
2021/04/13 03:21:20;;;;;;;;;16.25;16.00;;;;;11.78;75.06;101827.13;4975025;28;10813;-76
2021/04/13 03:24:21;;;;;;;;;15.00;15.00;;;;;11.92;74.61;101827.97;4971027;28;10908;-76
2021/04/13 03:27:24;;;;;;;;;16.75;16.75;;;;;11.92;74.28;101833.50;4976129;28;10888;-76
2021/04/13 03:30:26;;;;;;;;;17.25;15.50;;;;;11.81;74.75;101829.34;4975596;28;11226;-76
2021/04/13 03:33:27;;;;;;;;;16.25;16.25;;;;;11.76;74.98;101834.94;4968617;28;11007;-76
2021/04/13 03:36:25;;;;;;;;;17.00;16.50;;;;;11.77;75.11;101828.28;4970264;28;11028;-76
2021/04/13 03:39:36;;;;;;;;;16.50;16.50;;;;;11.68;75.76;101839.28;4984354;28;11093;-76
2021/04/13 03:42:34;;;;;;;;;19.75;18.50;;;;;11.76;75.56;101839.66;4977084;28;11079;-76
2021/04/13 03:45:32;;;;;;;;;21.25;19.75;;;;;11.75;75.56;101838.03;4968631;28;11179;-76
2021/04/13 03:48:30;;;;;;;;;20.75;20.75;;;;;11.80;75.29;101846.22;4971175;28;11232;-75
2021/04/13 03:51:30;;;;;;;;;22.00;21.00;;;;;11.80;75.51;101838.75;4970766;28;10906;-76
2021/04/13 03:54:36;;;;;;;;;20.25;18.25;;;;;11.85;75.34;101846.97;4971189;28;11312;-76
2021/04/13 03:57:33;;;;;;;;;17.00;17.00;;;;;11.98;74.62;101850.03;4969290;28;11412;-76
2021/04/13 04:00:28;;;;;;;;;16.75;16.75;;;;;11.85;74.96;101855.28;4987902;28;11860;-75
2021/04/13 04:03:24;;;;;;;;;13.50;13.50;;;;;11.90;74.86;101846.84;4973567;28;10876;-75
2021/04/13 04:07:06;;;;;;;;;16.00;15.50;;;;;11.64;75.91;101852.09;4976879;28;10831;-75
2021/04/13 04:09:36;;;;;;;;;19.75;17.00;;;;;11.65;75.56;101859.31;4972085;28;10834;-75
2021/04/13 04:12:32;;;;;;;;;16.75;16.75;;;;;11.85;75.31;101846.16;4971706;28;10882;-75
2021/04/13 04:16:03;;;;;;;;;17.50;17.25;;;;;12.04;74.51;101849.59;4971522;28;11920;-76
2021/04/13 04:19:29;;;;;;;;;14.75;13.75;;;;;11.93;74.77;101848.19;4974167;28;11318;-75
2021/04/13 04:22:26;;;;;;;;;18.25;17.00;;;;;11.97;74.70;101854.75;4984502;28;10979;-75
2021/04/13 04:25:44;;;;;;;;;22.50;20.75;;;;;11.97;74.65;101854.75;4975010;28;10903;-75
2021/04/13 04:28:23;;;;;;;;;17.00;17.00;;;;;12.03;74.49;101858.22;4976223;28;11055;-76
2021/04/13 04:31:36;;;;;;;;;22.75;20.75;;;;;12.09;74.21;101854.19;4982133;28;11191;-76
2021/04/13 04:34:31;;;;;;;;;27.25;26.25;;;;;12.13;74.19;101844.94;4969554;28;11108;-73
2021/04/13 04:37:35;;;;;;;;;17.75;17.75;;;;;12.29;73.22;101847.34;4968054;28;11337;-76
2021/04/13 04:40:30;;;;;;;;;18.25;18.25;;;;;12.18;73.31;101842.03;4986845;28;10934;-76
2021/04/13 04:43:48;;;;;;;;;18.75;18.75;;;;;12.28;72.83;101848.50;4975791;28;11165;-76
2021/04/13 04:46:38;;;;;;;;;16.75;16.75;;;;;12.34;72.70;101847.22;4976009;28;11062;-76
2021/04/13 04:49:12;;;;;;;;;15.25;15.25;;;;;12.35;72.73;101846.09;4977236;28;10852;-76
2021/04/13 04:52:07;;;;;;;;;12.75;12.75;;;;;12.39;72.70;101845.13;4975374;28;10762;-75
2021/04/13 04:55:04;;;;;;;;;15.00;15.00;;;;;12.44;72.46;101839.47;4976954;28;11652;-75
2021/04/13 04:57:32;;;;;;;;;23.25;21.25;;;;;12.44;72.20;101847.78;4975743;28;11666;-75
2021/04/13 05:00:28;;;;;;;;;15.00;14.75;;;;;12.36;72.70;101844.97;4975931;28;11075;-75
2021/04/13 05:03:25;;;;;;;;;26.25;23.25;;;;;12.51;72.50;101850.94;4976300;28;10900;-76
2021/04/13 05:06:21;;;;;;;;;20.50;20.50;;;;;12.44;72.74;101855.31;4976531;28;11031;-80
2021/04/13 05:08:49;;;;;;;;;24.00;24.00;;;;;12.57;72.17;101859.13;4975567;28;10858;-75
2021/04/13 05:11:44;;;;;;;;;28.75;22.75;;;;;12.68;71.74;101854.97;4975368;28;11171;-75
2021/04/13 05:14:40;;;;;;;;;35.00;33.00;;;;;12.64;71.76;101856.72;4975410;28;11185;-75
2021/04/13 05:17:35;;;;;;;;;27.75;23.00;;;;;12.68;71.58;101854.97;4975488;28;11348;-76
2021/04/13 05:20:04;;;;;;;;;33.50;29.50;;;;;12.71;71.36;101857.91;4973735;28;11189;-76
2021/04/13 05:22:35;;;;;;;;;29.00;29.00;;;;;12.80;71.11;101860.75;4979512;28;11642;-75
2021/04/13 05:25:31;;;;;;;;;39.75;36.50;;;;;12.83;70.99;101851.81;4974531;28;10935;-75
2021/04/13 05:28:27;;;;;;;;;21.50;21.50;;;;;12.90;70.64;101857.72;4975197;28;11099;-75
2021/04/13 05:30:57;;;;;;;;;20.75;20.75;;;;;12.86;70.58;101858.66;4989583;28;11146;-75
2021/04/13 05:33:52;;;;;;;;;29.00;24.75;;;;;12.83;70.76;101854.56;4972483;28;11182;-75
2021/04/13 05:36:51;;;;;;;;;34.75;31.00;;;;;12.86;70.63;101856.72;4973180;28;10969;-77
2021/04/13 05:39:47;;;;;;;;;18.50;18.50;;;;;12.86;70.56;101867.00;4963772;28;12075;-75
2021/04/13 05:42:44;;;;;;;;;20.25;20.25;;;;;12.87;70.68;101866.66;4970374;28;10761;-76
2021/04/13 05:45:43;;;;;;;;;19.25;19.25;;;;;12.77;71.15;101858.63;4974002;28;10999;-75
2021/04/13 05:48:11;;;;;;;;;15.00;15.00;;;;;12.76;71.01;101860.56;4974464;28;10585;-77
2021/04/13 05:50:42;;;;;;;;;18.25;17.25;;;;;12.65;71.66;101858.38;4981372;28;10887;-75
2021/04/13 05:53:12;;;;;;;;;16.50;16.50;;;;;12.47;72.26;101862.97;4972443;28;10688;-75
2021/04/13 05:56:13;;;;;;;;;20.50;17.50;;;;;12.56;72.15;101868.59;4972878;28;10656;-76
2021/04/13 05:58:49;;;;;;;;;19.75;19.75;;;;;12.79;71.58;101867.44;4971406;28;10864;-77
2021/04/13 06:01:48;;;;;;;;;17.00;17.00;;;;;12.74;71.42;101865.63;4979406;28;10944;-75
2021/04/13 06:04:16;;;;;;;;;22.50;22.50;;;;;12.77;71.48;101862.22;4988831;28;10918;-76
2021/04/13 06:07:12;;;;;;;;;20.75;20.75;;;;;12.83;71.54;101867.63;4981120;28;11567;-76
2021/04/13 06:09:39;;;;;;;;;22.50;22.50;;;;;12.82;71.49;101864.03;4980474;28;10855;-76
2021/04/13 06:12:09;;;;;;;;;18.00;18.00;;;;;12.68;71.77;101860.53;4973504;28;10769;-78
2021/04/13 06:15:06;;;;;;;;;24.25;23.75;;;;;12.95;71.10;101865.09;4971953;28;10692;-78
2021/04/13 06:17:33;;;;;;;;;19.00;18.50;;;;;13.06;70.78;101867.28;4972185;28;10840;-76
2021/04/13 06:20:23;;;;;;;;;26.00;24.75;;;;;13.24;70.13;101878.50;4971050;28;11663;-76
2021/04/13 06:22:54;;;;;;;;;26.75;26.75;;;;;13.25;69.64;101869.00;4973860;28;11101;-78
2021/04/13 06:25:25;;;;;;;;;23.25;22.25;;;;;13.48;69.17;101864.19;4972744;28;11031;-78
2021/04/13 06:28:21;;;;;;;;;22.75;22.75;;;;;13.63;68.43;101869.31;4981147;28;11555;-76
2021/04/13 06:31:02;;;;;;;;;21.75;20.25;;;;;13.34;69.27;101875.41;4969461;28;10610;-77
2021/04/13 06:33:58;;;;;;;;;24.75;24.25;;;;;13.31;69.58;101874.13;4969379;28;10467;-77
2021/04/13 06:37:02;;;;;;;;;24.00;23.00;;;;;13.46;69.41;101867.31;4973650;28;11407;-77
2021/04/13 06:39:58;;;;;;;;;17.75;17.75;;;;;13.41;68.89;101869.41;4968665;28;10628;-81
2021/04/13 06:43:20;;;;;;;;;17.25;16.75;;;;;13.74;68.25;101867.88;4973424;28;10504;-81
2021/04/13 06:46:15;;;;;;;;;19.50;19.00;;;;;13.92;67.57;101868.72;4972362;28;10390;-81
2021/04/13 06:49:23;;;;;;;;;16.50;16.50;;;;;13.74;68.17;101869.84;4970156;28;10521;-80
2021/04/13 06:52:33;;;;;;;;;20.00;20.00;;;;;13.60;68.14;101869.97;4960418;28;10734;-82
2021/04/13 06:55:27;;;;;;;;;16.75;16.00;;;;;13.37;68.94;101873.97;4973106;28;10440;-80
2021/04/13 06:59:20;;;;;;;;;16.00;16.00;;;;;13.63;68.18;101866.53;4974634;28;10288;-79
2021/04/13 07:01:57;;;;;;;;;15.00;15.00;;;;;13.83;67.40;101870.69;4940920;29;10475;-81
2021/04/13 07:05:25;;;;;;;;;17.00;17.00;;;;;13.53;67.97;101889.91;4936316;29;10293;-80
2021/04/13 07:08:20;;;;;;;;;19.25;19.25;;;;;13.71;67.70;101878.81;4965409;28;10439;-80
2021/04/13 07:10:56;;;;;;;;;19.25;19.25;;;;;13.51;68.03;101881.06;4989850;28;10442;-82
2021/04/13 07:14:14;;;;;;;;;16.50;16.50;;;;;13.44;68.80;101886.28;4973377;28;10473;-78
2021/04/13 07:17:23;;;;;;;;;18.75;18.75;;;;;13.52;68.66;101891.03;4972634;28;10356;-80
2021/04/13 07:20:23;;;;;;;;;14.75;14.75;;;;;13.74;67.95;101883.75;4967295;28;10353;-81
2021/04/13 07:23:45;;;;;;;;;13.25;13.25;;;;;13.23;69.69;101890.75;4970296;28;10330;-80
2021/04/13 07:27:02;;;;;;;;;16.50;16.50;;;;;13.51;69.10;101878.28;4973423;28;10318;-79
2021/04/13 07:30:09;;;;;;;;;16.50;15.50;;;;;13.46;69.18;101883.16;4972350;28;10362;-80
2021/04/13 07:32:56;;;;;;;;;9.00;8.75;;;;;13.39;69.36;101880.03;4972131;28;10370;-78
2021/04/13 07:36:08;;;;;;;;;15.75;15.75;;;;;13.56;68.65;101871.75;4973395;28;10400;-78
2021/04/13 07:39:04;;;;;;;;;15.00;12.00;;;;;13.80;67.42;101877.72;4967459;28;10371;-79
2021/04/13 07:42:12;;;;;;;;;12.75;12.75;;;;;13.60;68.52;101879.13;4965618;28;10411;-79
2021/04/13 07:45:17;;;;;;;;;19.75;19.75;;;;;13.58;68.55;101880.59;4976246;28;10458;-77
2021/04/13 07:48:06;;;;;;;;;17.00;17.00;;;;;13.83;67.46;101882.63;4976543;28;10571;-81
2021/04/13 07:51:05;;;;;;;;;18.50;18.50;;;;;14.04;66.66;101882.81;4977064;28;10363;-81
2021/04/13 07:54:39;;;;;;;;;12.50;12.50;;;;;13.49;68.13;101869.44;4977421;28;10405;-82
2021/04/13 07:57:42;;;;;;;;;16.25;16.25;;;;;13.38;68.80;101883.94;4978934;28;10306;-82
2021/04/13 08:00:40;;;;;;;;;19.00;19.00;;;;;13.30;69.05;101880.00;4963124;28;10407;-80
2021/04/13 08:03:28;;;;;;;;;16.75;16.75;;;;;13.42;68.68;101887.72;4977432;28;10434;-81
2021/04/13 08:05:59;;;;;;;;;15.75;14.75;;;;;13.34;68.56;101879.06;4973829;28;10122;-84
2021/04/13 08:08:36;;;;;;;;;22.50;20.50;;;;;13.32;69.07;101883.25;4988274;28;10364;-79
2021/04/13 08:11:20;;;;;;;;;17.50;17.50;;;;;13.38;69.20;101879.22;4975068;28;10605;-80
2021/04/13 08:14:21;;;;;;;;;18.50;18.50;;;;;13.53;68.42;101864.06;4975493;28;10308;-81
2021/04/13 08:17:24;;;;;;;;;15.25;15.25;;;;;13.30;68.87;101877.22;4987714;28;10596;-81
2021/04/13 08:20:32;;;;;;;;;10.75;3.25;;;;;13.11;69.89;101869.06;4992006;28;10182;-81
2021/04/13 08:23:27;;;;;;;;;16.25;16.25;;;;;12.87;70.38;101871.41;5001475;28;10878;-82
2021/04/13 08:26:25;;;;;;;;;14.50;14.50;;;;;13.26;69.57;101868.69;4977269;28;10306;-85
2021/04/13 08:29:36;;;;;;;;;12.00;12.00;;;;;13.15;69.58;101872.06;5000846;28;10385;-83
2021/04/13 08:33:23;;;;;;;;;15.25;15.25;;;;;13.32;69.75;101861.84;4979848;28;10474;-83
2021/04/13 08:36:31;;;;;;;;;16.25;16.25;;;;;13.32;69.42;101866.59;4990066;28;10541;-82
2021/04/13 08:39:45;;;;;;;;;17.50;17.50;;;;;13.45;69.44;101874.00;4973957;28;11275;-78
2021/04/13 08:42:33;;;;;;;;;17.00;17.00;;;;;13.32;69.47;101866.59;4977520;28;10666;-77
2021/04/13 08:45:15;;;;;;;;;19.00;18.50;;;;;13.33;69.87;101866.28;4977421;28;10547;-78
2021/04/13 08:48:27;;;;;;;;;16.25;16.25;;;;;13.62;68.04;101851.81;4975105;28;10428;-79
2021/04/13 08:51:14;;;;;;;;;11.00;11.00;;;;;13.16;69.86;101862.56;4976722;28;10435;-78
2021/04/13 08:53:48;;;;;;;;;14.75;14.75;;;;;13.44;69.00;101864.03;4975716;28;10223;-79
2021/04/13 08:56:23;;;;;;;;;12.00;12.00;;;;;13.84;67.40;101858.41;4969788;28;10303;-79
2021/04/13 08:58:56;;;;;;;;;8.00;8.00;;;;;13.82;65.74;101867.09;4993017;28;10402;-80
2021/04/13 09:02:21;;;;;;;;;20.25;20.25;;;;;13.87;65.83;101863.31;4980092;28;10235;-80
2021/04/13 09:05:24;;;;;;;;;8.75;8.50;;;;;13.82;65.49;101860.69;4978230;28;10489;-79
2021/04/13 09:08:27;;;;;;;;;8.75;8.00;;;;;14.00;64.45;101869.88;4977925;28;10203;-76
2021/04/13 09:11:49;;;;;;;;;8.00;8.00;;;;;13.91;64.36;101867.09;4973930;28;10046;-78
2021/04/13 09:14:40;;;;;;;;;8.25;8.25;;;;;13.96;63.68;101872.50;4972667;28;10033;-79
2021/04/13 09:17:59;;;;;;;;;8.00;8.00;;;;;13.93;63.79;101875.91;4975282;28;9845;-79
2021/04/13 09:21:03;;;;;;;;;6.00;6.00;;;;;13.83;64.41;101870.69;4974483;28;9954;-79
2021/04/13 09:23:58;;;;;;;;;14.00;12.00;;;;;14.06;63.77;101869.41;4975302;28;10025;-79
2021/04/13 09:26:57;;;;;;;;;7.00;7.00;;;;;13.69;65.09;101878.34;4974261;28;10108;-80
2021/04/13 09:29:39;;;;;;;;;9.00;9.00;;;;;13.87;64.88;101868.88;4976591;28;9805;-78
2021/04/13 09:32:42;;;;;;;;;15.25;13.50;;;;;13.81;65.06;101868.22;4971075;28;9892;-79
2021/04/13 09:35:53;;;;;;;;;9.00;9.00;;;;;14.02;64.21;101868.41;4971323;28;10964;-79
2021/04/13 09:39:15;;;;;;;;;6.00;6.00;;;;;13.81;64.83;101873.78;4973726;28;10123;-79
2021/04/13 09:42:39;;;;;;;;;6.00;5.50;;;;;13.73;65.15;101874.59;4975916;28;9879;-78
2021/04/13 09:46:02;;;;;;;;;6.50;6.50;;;;;13.91;64.73;101870.69;4973798;28;10072;-80
2021/04/13 09:49:03;;;;;;;;;5.00;5.00;;;;;13.98;64.85;101873.00;4977343;28;9934;-80
2021/04/13 09:52:30;;;;;;;;;7.00;7.00;;;;;14.07;64.48;101873.81;4992706;28;9982;-79
2021/04/13 09:55:29;;;;;;;;;8.25;8.25;;;;;14.18;64.33;101875.16;4998470;28;10064;-78
2021/04/13 09:58:40;;;;;;;;;10.75;10.75;;;;;14.30;63.81;101874.47;4995211;28;9926;-77
2021/04/13 10:01:57;;;;;;;;;3.25;3.25;;;;;14.32;62.93;101876.94;4992485;28;10072;-78
2021/04/13 10:05:00;;;;;;;;;5.75;5.75;;;;;14.28;62.81;101871.22;4978054;28;9622;-79
2021/04/13 10:08:00;;;;;;;;;5.00;5.00;;;;;13.92;64.65;101871.50;4990825;28;9817;-77
2021/04/13 10:10:44;;;;;;;;;6.25;6.25;;;;;14.27;63.74;101871.56;4994458;28;9843;-79
2021/04/13 10:13:41;;;;;;;;;7.25;5.00;;;;;14.22;63.71;101871.69;4973401;28;10577;-78
2021/04/13 10:17:04;;;;;;;;;6.00;6.00;;;;;14.29;63.45;101872.84;4992346;28;9706;-78
2021/04/13 10:20:26;;;;;;;;;9.25;9.25;;;;;14.36;63.74;101875.16;4991972;28;10653;-79
2021/04/13 10:23:58;;;;;;;;;6.50;6.50;;;;;14.27;63.89;101875.16;4994912;28;9948;-78
2021/04/13 10:27:04;;;;;;;;;26.00;21.50;;;;;14.37;63.61;101879.56;4991271;28;9732;-78
2021/04/13 10:30:06;;;;;;;;;9.00;7.75;;;;;14.22;63.87;101882.84;4993847;28;10087;-79
2021/04/13 10:33:00;;;;;;;;;6.25;6.25;;;;;14.34;63.68;101885.78;4991865;28;9800;-78
2021/04/13 10:36:06;;;;;;;;;8.50;8.50;;;;;14.32;63.35;101876.94;4977262;28;9660;-76
2021/04/13 10:39:07;;;;;;;;;13.25;13.25;;;;;14.39;63.46;101877.25;4991124;28;9604;-78
2021/04/13 10:42:48;;;;;;;;;4.00;4.00;;;;;14.39;62.77;101875.28;5001036;28;10145;-78
2021/04/13 10:46:25;;;;;;;;;8.75;7.00;;;;;14.16;63.09;101871.03;4989752;28;9810;-81
2021/04/13 10:49:05;;;;;;;;;4.50;4.50;;;;;14.21;63.18;101867.28;4978486;28;9514;-83
2021/04/13 10:51:56;;;;;;;;;3.00;3.00;;;;;14.45;62.80;101870.38;4993225;28;9838;-82
2021/04/13 10:55:03;;;;;;;;;7.25;7.25;;;;;14.54;62.22;101874.00;4992644;28;9501;-81
2021/04/13 10:57:57;;;;;;;;;6.00;6.00;;;;;14.78;61.87;101879.03;4976558;28;9736;-81
2021/04/13 11:00:34;;;;;;;;;16.50;11.00;;;;;14.80;61.07;101876.78;4968208;28;9573;-82
2021/04/13 11:03:52;;;;;;;;;7.00;7.00;;;;;14.62;61.51;101866.78;4993559;28;9754;-81
2021/04/13 11:07:16;;;;;;;;;10.00;10.00;;;;;14.87;60.94;101874.28;5010100;28;9730;-84
2021/04/13 11:10:28;;;;;;;;;6.75;6.00;;;;;15.00;60.41;101880.81;4995157;28;9641;-83
2021/04/13 11:13:48;;;;;;;;;6.75;6.75;;;;;15.20;58.96;101882.06;4998459;28;9578;-85
2021/04/13 11:16:54;;;;;;;;;4.00;4.00;;;;;15.07;59.36;101877.50;4980180;28;10404;-85
2021/04/13 11:20:17;;;;;;;;;7.00;7.00;;;;;15.20;59.41;101882.88;5002401;28;9491;-85
2021/04/13 11:23:41;;;;;;;;;6.50;6.50;;;;;15.27;59.04;101879.56;4995701;28;9517;-88
2021/04/13 11:27:28;;;;;;;;;4.00;4.00;;;;;15.14;59.18;101884.19;4994370;28;9670;-86
2021/04/13 11:30:27;;;;;;;;;5.25;5.25;;;;;15.17;59.64;101891.06;5001494;28;9428;-86
2021/04/13 11:33:17;;;;;;;;;6.00;6.00;;;;;15.12;58.83;101883.72;5005376;28;9476;-88
2021/04/13 11:36:16;;;;;;;;;3.33;3.33;;;;;15.32;59.54;101878.56;4993630;28;9390;-90
2021/04/13 11:38:46;;;;;;;;;6.67;6.67;;;;;15.44;58.33;101881.47;4952093;28;9475;-90
2021/04/13 11:41:56;;;;;;;;;5.00;5.00;;;;;15.43;58.75;101879.84;4994376;28;9598;-87
2021/04/13 11:45:35;;;;;;;;;5.67;5.67;;;;;15.40;58.19;101872.13;5013614;28;9692;-87
2021/04/13 11:48:36;;;;;;;;;11.25;11.25;;;;;15.65;58.29;101873.19;4990764;28;9355;-89
2021/04/13 11:52:07;;;;;;;;;6.33;5.67;;;;;15.58;58.14;101868.13;4994541;28;9563;-88
2021/04/13 11:55:27;;;;;;;;;4.67;4.67;;;;;14.81;59.20;101872.84;4991952;28;9222;-86
2021/04/13 11:58:33;;;;;;;;;8.25;8.25;;;;;15.20;58.29;101874.50;5017570;28;9402;-90
2021/04/13 12:01:41;;;;;;;;;7.00;7.00;;;;;15.20;58.26;101874.50;5005020;28;9625;-86
2021/04/13 12:04:38;;;;;;;;;5.33;5.33;;;;;15.24;58.02;101875.47;4985687;28;9516;-89
2021/04/13 12:07:52;;;;;;;;;5.50;5.50;;;;;15.21;57.61;101878.94;5007262;28;9396;-87
2021/04/13 12:10:53;;;;;;;;;7.00;7.00;;;;;15.28;57.37;101878.41;4981909;28;9522;-83
2021/04/13 12:14:58;;;;;;;;;5.33;5.33;;;;;14.85;58.39;101868.22;4979321;28;9587;-90
2021/04/13 12:17:36;;;;;;;;;5.25;5.25;;;;;15.01;58.03;101866.53;4982596;28;9482;-84
2021/04/13 12:20:33;;;;;;;;;7.00;7.00;;;;;15.18;57.51;101871.25;4987950;28;9573;-86
2021/04/13 12:23:05;;;;;;;;;9.00;7.00;;;;;14.94;58.10;101857.06;5004718;28;9409;-85
2021/04/13 12:25:34;;;;;;;;;8.00;8.00;;;;;15.24;59.04;101858.75;5009461;28;10449;-86
2021/04/13 12:28:09;;;;;;;;;8.00;8.00;;;;;15.20;58.23;101857.78;5009558;28;9403;-87
2021/04/13 12:30:47;;;;;;;;;29.25;29.25;;;;;15.28;58.04;101853.34;4990463;28;9402;-85
2021/04/13 12:33:34;;;;;;;;;6.00;6.00;;;;;15.46;57.57;101859.63;5003209;28;10526;-87
2021/04/13 12:37:11;;;;;;;;;7.50;7.50;;;;;15.48;57.52;101854.53;5006493;28;9498;-88
2021/04/13 12:40:23;;;;;;;;;9.33;9.33;;;;;15.41;56.94;101852.28;5007698;28;9481;-90
2021/04/13 12:43:13;;;;;;;;;16.67;13.33;;;;;15.37;57.76;101850.50;4981803;28;9354;-87
2021/04/13 12:46:17;;;;;;;;;6.67;6.67;;;;;15.24;57.28;101847.59;5002969;28;9348;-85
2021/04/13 12:49:14;;;;;;;;;7.67;7.00;;;;;15.36;57.29;101843.31;5003398;28;9347;-83
2021/04/13 12:52:19;;;;;;;;;5.00;5.00;;;;;15.37;57.06;101842.13;4998716;28;10242;-83
2021/04/13 12:54:48;;;;;;;;;5.00;5.00;;;;;15.39;57.09;101854.59;5005300;28;9395;-83
2021/04/13 12:57:55;;;;;;;;;4.00;4.00;;;;;15.27;56.84;101855.31;4991499;28;9197;-85
2021/04/13 13:00:41;;;;;;;;;5.67;5.67;;;;;15.24;57.24;101844.81;5001788;28;9376;-86
2021/04/13 13:03:35;;;;;;;;;18.50;18.50;;;;;15.14;57.74;101847.16;5005064;28;9363;-90
2021/04/13 13:06:35;;;;;;;;;11.50;11.50;;;;;15.24;57.67;101841.22;4994439;28;9797;-87
2021/04/13 13:09:08;;;;;;;;;8.50;8.50;;;;;15.41;57.76;101846.72;4979721;28;9589;-88
2021/04/13 13:12:32;;;;;;;;;11.00;10.25;;;;;15.23;57.48;101845.16;4994813;28;9477;-89
2021/04/13 13:15:14;;;;;;;;;21.50;21.50;;;;;15.14;57.45;101850.75;4988796;28;9582;-91
2021/04/13 13:17:53;;;;;;;;;14.75;14.75;;;;;15.12;57.80;101843.91;4977923;28;10283;-91
2021/04/13 13:21:19;;;;;;;;;7.00;7.00;;;;;15.06;58.03;101842.44;4984530;28;9601;-91
2021/04/13 13:24:21;;;;;;;;;11.50;11.50;;;;;14.95;57.94;101841.97;5014662;28;9629;-87
2021/04/13 13:26:50;;;;;;;;;6.50;6.50;;;;;14.75;58.24;101843.50;4999630;28;9687;-88
2021/04/13 13:29:48;;;;;;;;;9.50;9.50;;;;;14.98;58.15;101838.53;4985828;28;9594;-89
2021/04/13 13:32:20;;;;;;;;;7.00;7.00;;;;;14.74;58.32;101839.91;5002262;28;9656;-89
2021/04/13 13:35:18;;;;;;;;;6.50;6.50;;;;;14.73;58.45;101841.06;4994765;28;9558;-88
2021/04/13 13:38:21;;;;;;;;;5.75;5.75;;;;;14.89;58.02;101837.75;5003339;28;9711;-86
2021/04/13 13:40:50;;;;;;;;;5.00;5.00;;;;;14.86;57.61;101836.44;5009046;28;9664;-87
2021/04/13 13:43:24;;;;;;;;;5.00;5.00;;;;;14.67;58.38;101836.81;5009339;28;9588;-85
2021/04/13 13:46:19;;;;;;;;;8.25;8.25;;;;;14.77;58.57;101834.81;5008430;28;9671;-86
2021/04/13 13:49:41;;;;;;;;;8.00;8.00;;;;;14.59;58.92;101840.44;4989267;28;9697;-85
2021/04/13 13:52:43;;;;;;;;;7.00;7.00;;;;;14.54;58.67;101848.94;4981538;28;9468;-82